createdAt,value
2019-05-17T06:53:36.509Z,99.99
2019-05-17T06:54:36.470Z,99.99
2019-05-17T06:55:36.449Z,99.99
2019-05-17T06:56:36.427Z,99.99
2019-05-17T06:57:36.405Z,99.99
2019-05-17T06:58:36.399Z,99.99
2019-05-17T06:59:36.368Z,99.99
2019-05-17T07:00:36.343Z,99.99
2019-05-17T07:01:36.322Z,99.99
2019-05-17T07:02:36.303Z,99.99
2019-05-17T07:03:36.298Z,99.99
2019-05-17T07:04:36.259Z,99.99
2019-05-17T07:05:36.239Z,99.99
2019-05-17T07:06:36.224Z,99.99
2019-05-17T07:07:36.199Z,99.99
2019-05-17T07:08:36.182Z,99.99
2019-05-17T07:09:36.174Z,99.99
2019-05-17T07:10:36.146Z,99.99
2019-05-17T07:11:36.127Z,99.99
2019-05-17T07:12:36.101Z,99.99
2019-05-17T07:13:36.085Z,99.99
2019-05-17T07:14:36.087Z,99.99
2019-05-17T07:15:46.896Z,99.99
2019-05-17T07:16:36.023Z,99.99
2019-05-17T07:17:36.009Z,99.99
2019-05-17T07:18:35.987Z,99.99
2019-05-17T07:19:35.970Z,99.99
2019-05-17T07:20:35.968Z,99.99
2019-05-17T07:58:21.324Z,99.99
2019-05-17T07:59:20.006Z,99.99
2019-05-17T08:00:20.212Z,99.99
2019-05-17T08:01:20.511Z,99.99
2019-05-17T08:02:19.907Z,99.99
2019-05-17T08:03:20.957Z,99.99
2019-05-17T08:04:20.474Z,99.99
2019-05-17T08:05:21.464Z,99.99
2019-05-17T08:06:19.905Z,99.99
2019-05-17T08:07:19.715Z,99.99
2019-05-17T08:08:20.859Z,99.99
2019-05-17T08:09:20.453Z,99.99
2019-05-17T08:10:20.358Z,99.99
2019-05-17T08:11:19.756Z,99.99
2019-05-17T08:12:19.984Z,99.99
2019-05-17T08:13:27.421Z,99.99
2019-05-17T08:14:29.281Z,99.99
2019-05-17T08:15:19.767Z,99.99
2019-05-17T08:16:19.631Z,99.99
2019-05-17T08:17:19.857Z,99.99
2019-05-17T08:18:20.381Z,99.99
2019-05-17T08:30:51.675Z,99.99
2019-05-17T08:31:51.652Z,99.99
2019-05-17T08:32:51.619Z,99.99
2019-05-17T08:33:51.595Z,99.99
2019-05-17T08:34:51.956Z,99.99
2019-05-17T08:35:51.553Z,99.99
2019-05-17T08:36:51.557Z,99.99
2019-05-17T08:37:51.517Z,99.99
2019-05-17T08:38:51.494Z,99.99
2019-05-17T08:39:51.479Z,99.99
2019-05-17T08:40:51.464Z,99.99
2019-05-17T08:41:51.453Z,99.99
2019-05-17T08:42:51.418Z,99.99
2019-05-17T08:43:51.637Z,99.99
2019-05-17T08:44:51.379Z,99.99
2019-05-17T08:45:51.374Z,99.99
2019-05-17T08:46:51.360Z,99.99
2019-05-17T08:47:51.324Z,99.99
2019-05-17T08:48:51.310Z,99.99
2019-05-17T08:49:51.288Z,99.99
2019-05-17T08:50:51.271Z,99.99
2019-05-17T08:51:51.287Z,99.99
2019-05-17T08:52:51.231Z,99.99
2019-05-17T08:53:51.224Z,99.99
2019-05-17T08:54:51.198Z,99.99
2019-05-17T08:55:51.179Z,99.99
2019-05-17T08:56:51.158Z,99.99
2019-05-17T08:57:51.159Z,99.99
2019-05-17T08:58:51.123Z,99.99
2019-05-17T08:59:51.106Z,99.99
2019-05-17T09:00:51.087Z,99.99
2019-05-17T09:01:51.068Z,99.99
2019-05-17T09:02:51.073Z,99.99
2019-05-17T09:03:51.034Z,99.99
2019-05-17T09:04:51.015Z,99.99
2019-05-17T09:05:52.567Z,99.99
2019-05-17T09:06:50.980Z,99.99
2019-05-17T09:07:50.980Z,99.99
2019-05-17T09:08:50.953Z,99.99
2019-05-17T09:09:50.928Z,99.99
2019-05-17T09:10:50.914Z,99.99
2019-05-17T09:11:50.894Z,99.99
2019-05-17T09:12:50.890Z,99.99
2019-05-17T09:13:57.556Z,99.99
2019-05-17T09:14:50.839Z,99.99
2019-05-17T09:15:50.823Z,99.99
2019-05-17T09:16:50.810Z,99.99
2019-05-17T09:17:50.791Z,99.99
2019-05-17T09:18:50.787Z,99.99
2019-05-17T09:19:54.113Z,99.99
2019-05-17T09:20:50.735Z,99.99
2019-05-17T09:21:50.720Z,99.99
2019-05-17T09:22:51.154Z,99.99
2019-05-17T09:23:50.703Z,99.99
2019-05-17T09:24:50.675Z,99.99
2019-05-17T09:25:50.653Z,99.99
2019-05-17T09:26:50.634Z,99.99
2019-05-17T09:27:50.621Z,99.99
2019-05-17T09:28:50.613Z,99.99
2019-05-17T09:29:50.582Z,99.99
2019-05-17T09:30:50.879Z,99.99
2019-05-17T09:31:50.568Z,99.99
2019-05-17T09:32:50.533Z,99.99
2019-05-17T09:33:50.531Z,99.99
2019-05-17T09:34:50.508Z,99.99
2019-05-17T09:35:50.484Z,99.99
2019-05-17T09:36:50.466Z,99.99
2019-05-17T09:37:50.447Z,99.99
2019-05-17T09:38:50.468Z,99.99
2019-05-17T09:39:50.416Z,99.99
2019-05-17T09:40:50.661Z,99.99
2019-05-17T09:41:50.383Z,99.99
2019-05-17T09:42:50.367Z,99.99
2019-05-17T09:43:50.351Z,99.99
2019-05-17T09:44:50.343Z,99.99
2019-05-17T09:45:50.936Z,99.99
2019-05-17T09:46:50.503Z,99.99
2019-05-17T09:47:50.673Z,99.99
2019-05-17T09:48:50.671Z,99.99
2019-05-17T09:49:50.299Z,99.99
2019-05-17T09:50:50.617Z,99.99
2019-05-17T09:51:50.216Z,99.99
2019-05-17T09:52:50.201Z,99.99
2019-05-17T09:53:50.187Z,99.99
2019-05-17T09:54:50.568Z,99.99
2019-05-17T09:55:50.157Z,99.99
2019-05-17T09:56:50.139Z,99.99
2019-05-17T09:57:50.119Z,99.99
2019-05-17T09:58:50.103Z,99.99
2019-05-17T09:59:50.089Z,99.99
2019-05-17T10:00:50.086Z,99.99
2019-05-17T10:01:50.056Z,99.99
2019-05-17T10:02:50.749Z,99.99
2019-05-17T10:03:50.545Z,99.99
2019-05-17T10:04:50.391Z,99.99
2019-05-17T10:05:50.027Z,99.99
2019-05-17T10:06:51.353Z,99.99
2019-05-17T10:07:50.753Z,99.99
2019-05-17T10:08:49.948Z,99.99
2019-05-17T10:09:50.242Z,99.99
2019-05-17T10:11:04.196Z,99.99
2019-05-17T10:11:49.909Z,99.99
2019-05-17T10:12:49.984Z,99.99
2019-05-17T10:13:50.044Z,99.99
2019-05-17T10:14:49.985Z,99.99
2019-05-17T10:15:50.164Z,99.99
2019-05-17T10:16:49.831Z,99.99
2019-05-17T10:17:49.797Z,99.99
2019-05-17T10:18:49.793Z,99.99
2019-05-17T10:19:49.765Z,99.99
2019-05-17T10:20:50.617Z,99.99
2019-05-17T10:21:49.756Z,99.99
2019-05-17T10:22:50.435Z,99.99
2019-05-17T10:23:49.942Z,99.99
2019-05-17T10:24:49.685Z,99.99
2019-05-17T10:25:49.670Z,99.99
2019-05-17T10:26:49.958Z,99.99
2019-05-17T10:27:49.907Z,99.99
2019-05-17T10:28:51.664Z,99.99
2019-05-17T10:29:50.142Z,99.99
2019-05-17T10:30:52.385Z,99.99
2019-05-17T10:31:50.468Z,99.99
2019-05-17T10:32:50.611Z,99.99
2019-05-17T10:33:49.600Z,99.99
2019-05-17T10:34:49.610Z,99.99
2019-05-17T10:35:49.743Z,99.99
2019-05-17T10:36:50.639Z,99.99
2019-05-17T10:37:50.514Z,99.99
2019-05-17T10:38:50.222Z,99.99
2019-05-17T10:39:50.252Z,99.99
2019-05-17T10:40:50.112Z,99.99
2019-05-17T10:41:50.055Z,99.99
2019-05-17T10:42:49.989Z,99.99
2019-05-17T10:43:50.123Z,99.99
2019-05-17T10:44:51.433Z,99.99
2019-05-17T10:45:49.349Z,99.99
2019-05-17T10:46:49.362Z,99.99
2019-05-17T10:47:50.294Z,99.99
2019-05-17T10:48:50.059Z,99.99
2019-05-17T10:49:49.699Z,99.99
2019-05-17T10:50:49.712Z,99.99
2019-05-17T10:51:49.497Z,99.99
2019-05-17T10:52:49.239Z,99.99
2019-05-17T10:53:51.347Z,99.99
2019-05-17T10:54:49.204Z,99.99
2019-05-17T10:55:49.770Z,99.99
2019-05-17T10:56:50.231Z,99.99
2019-05-17T10:57:50.000Z,99.99
2019-05-17T10:58:49.394Z,99.99
2019-05-17T10:59:49.887Z,99.99
2019-05-17T11:00:50.113Z,99.99
2019-05-17T11:01:50.141Z,99.99
2019-05-17T11:02:50.275Z,99.99
2019-05-17T11:03:50.315Z,99.99
2019-05-17T11:04:50.550Z,99.99
2019-05-17T11:05:50.214Z,99.99
2019-05-17T11:06:50.056Z,99.99
2019-05-17T11:07:50.499Z,99.99
2019-05-17T11:08:50.145Z,99.99
2019-05-17T11:09:50.943Z,99.99
2019-05-17T11:10:50.099Z,99.99
2019-05-17T11:11:48.933Z,99.99
2019-05-17T11:12:48.930Z,99.99
2019-05-17T11:13:48.897Z,99.99
2019-05-17T11:14:52.604Z,99.99
2019-05-17T11:15:48.867Z,99.99
2019-05-17T11:16:48.854Z,99.99
2019-05-17T11:17:48.853Z,99.99
2019-05-17T11:18:48.818Z,99.99
2019-05-17T11:19:48.812Z,99.99
2019-05-17T11:20:48.786Z,99.99
2019-05-17T11:21:48.771Z,99.99
2019-05-17T11:22:48.757Z,99.99
2019-05-17T11:23:48.756Z,99.99
2019-05-17T11:24:48.724Z,99.99
2019-05-17T11:25:48.713Z,99.99
2019-05-17T11:26:48.691Z,99.99
2019-05-17T11:27:48.675Z,99.99
2019-05-17T11:28:48.679Z,99.99
2019-05-17T11:29:48.645Z,99.99
2019-05-17T11:30:48.628Z,99.99
2019-05-17T11:31:48.611Z,99.99
2019-05-17T11:32:48.595Z,99.99
2019-05-17T11:33:48.593Z,99.99
2019-05-17T11:34:48.565Z,99.99
2019-05-17T11:35:48.547Z,99.99
2019-05-17T11:36:48.531Z,99.99
2019-05-17T11:37:48.528Z,99.99
2019-05-17T11:38:48.539Z,99.99
2019-05-17T11:39:48.487Z,99.99
2019-05-17T11:40:50.002Z,99.99
2019-05-17T11:41:48.449Z,99.99
2019-05-17T11:42:48.435Z,99.99
2019-05-17T11:43:48.423Z,99.99
2019-05-17T11:44:48.416Z,99.99
2019-05-17T11:45:48.384Z,99.99
2019-05-17T11:46:48.374Z,99.99
2019-05-17T11:47:48.360Z,99.99
2019-05-17T11:48:48.339Z,99.99
2019-05-17T11:49:48.347Z,99.99
2019-05-17T11:50:48.307Z,99.99
2019-05-17T11:51:48.292Z,99.99
2019-05-17T11:52:48.278Z,99.99
2019-05-17T11:53:48.261Z,99.99
2019-05-17T11:54:48.259Z,99.99
2019-05-17T11:55:48.228Z,99.99
2019-05-17T11:56:48.212Z,99.99
2019-05-17T11:57:48.199Z,99.99
2019-05-17T11:58:48.182Z,99.99
2019-05-17T11:59:48.181Z,99.99
2019-05-17T12:00:48.149Z,99.99
2019-05-17T12:01:48.140Z,99.99
2019-05-17T12:02:48.121Z,99.99
2019-05-17T12:03:48.108Z,99.99
2019-05-17T12:04:48.106Z,99.99
2019-05-17T12:05:48.072Z,99.99
2019-05-17T12:06:48.062Z,99.99
2019-05-17T12:07:48.045Z,99.99
2019-05-17T12:08:48.025Z,99.99
2019-05-17T12:09:48.017Z,99.99
2019-05-17T12:10:48.119Z,99.99
2019-05-17T12:11:47.982Z,97.28
2019-05-17T12:12:47.964Z,98.71
2019-05-17T12:13:47.953Z,99.77
2019-05-17T12:14:47.942Z,99.99
2019-05-17T12:15:47.935Z,99.24
2019-05-17T12:16:47.903Z,98.28
2019-05-17T12:17:47.889Z,96.37
2019-05-17T12:18:47.877Z,97.42
2019-05-17T12:19:47.862Z,96.32
2019-05-17T12:20:47.868Z,94.64
2019-05-17T12:21:47.829Z,92.48
2019-05-17T12:22:47.822Z,94.17
2019-05-17T12:23:47.801Z,95.65
2019-05-17T12:24:47.787Z,94.98
2019-05-17T12:25:47.889Z,94.17
2019-05-17T12:26:47.771Z,92.15
2019-05-17T12:27:47.743Z,91.00
2019-05-17T12:28:47.733Z,92.10
2019-05-17T12:29:47.720Z,92.72
2019-05-17T12:30:47.702Z,92.77
2019-05-17T12:31:47.700Z,89.74
2019-05-17T12:32:47.675Z,86.57
2019-05-17T12:33:47.658Z,87.67
2019-05-17T12:34:47.649Z,85.94
2019-05-17T12:35:47.633Z,86.08
2019-05-17T12:36:47.654Z,83.95
2019-05-17T12:37:47.610Z,80.94
2019-05-17T12:38:47.593Z,81.12
2019-05-17T12:39:47.583Z,77.55
2019-05-17T12:40:47.565Z,75.71
2019-05-17T12:41:47.595Z,80.19
2019-05-17T12:42:47.551Z,82.74
2019-05-17T12:43:47.552Z,81.12
2019-05-17T12:44:47.515Z,81.88
2019-05-17T12:45:59.463Z,79.96
2019-05-17T12:46:47.487Z,81.37
2019-05-17T12:47:47.493Z,81.96
2019-05-17T12:48:47.466Z,85.13
2019-05-17T12:49:47.452Z,83.07
2019-05-17T12:50:47.442Z,83.26
2019-05-17T12:51:47.433Z,84.03
2019-05-17T12:52:47.432Z,83.87
2019-05-17T12:53:47.407Z,82.57
2019-05-17T12:54:47.398Z,81.32
2019-05-17T12:55:47.383Z,84.21
2019-05-17T12:56:47.371Z,83.15
2019-05-17T12:57:47.381Z,81.86
2019-05-17T12:58:47.346Z,82.29
2019-05-17T12:59:47.331Z,82.73
2019-05-17T13:00:47.319Z,82.87
2019-05-17T13:01:47.306Z,83.64
2019-05-17T13:02:47.310Z,82.49
2019-05-17T13:03:47.282Z,83.27
2019-05-17T13:04:47.269Z,85.10
2019-05-17T13:05:47.259Z,85.67
2019-05-17T13:06:47.244Z,86.92
2019-05-17T13:07:47.256Z,86.58
2019-05-17T13:08:47.218Z,85.24
2019-05-17T13:09:47.218Z,85.66
2019-05-17T13:10:47.193Z,83.11
2019-05-17T13:11:47.184Z,83.59
2019-05-17T13:12:47.181Z,83.67
2019-05-17T13:13:47.159Z,82.31
2019-05-17T13:14:47.149Z,77.58
2019-05-17T13:15:47.131Z,74.76
2019-05-17T13:16:47.118Z,75.34
2019-05-17T13:17:47.122Z,73.96
2019-05-17T13:18:47.095Z,72.48
2019-05-17T13:19:47.080Z,72.47
2019-05-17T13:20:47.071Z,74.26
2019-05-17T13:21:47.061Z,75.19
2019-05-17T13:22:47.071Z,75.34
2019-05-17T13:23:47.033Z,76.81
2019-05-17T13:24:47.027Z,79.07
2019-05-17T13:25:47.014Z,79.61
2019-05-17T13:26:47.003Z,80.76
2019-05-17T13:27:46.994Z,81.86
2019-05-17T13:28:46.989Z,81.52
2019-05-17T13:29:46.973Z,80.51
2019-05-17T13:30:46.956Z,81.96
2019-05-17T13:31:46.946Z,80.66
2019-05-17T13:32:46.932Z,82.92
2019-05-17T13:33:46.931Z,80.22
2019-05-17T13:34:46.906Z,80.55
2019-05-17T13:35:46.901Z,79.98
2019-05-17T13:36:46.883Z,79.50
2019-05-17T13:37:46.869Z,80.51
2019-05-17T13:38:46.874Z,79.94
2019-05-17T13:39:46.850Z,81.57
2019-05-17T13:40:46.837Z,79.75
2019-05-17T13:41:46.822Z,79.55
2019-05-17T13:42:46.819Z,78.98
2019-05-17T13:43:46.821Z,79.60
2019-05-17T13:44:46.786Z,78.81
2019-05-17T13:45:46.783Z,77.63
2019-05-17T13:46:46.762Z,74.57
2019-05-17T13:47:46.751Z,74.41
2019-05-17T13:48:46.738Z,75.24
2019-05-17T13:49:46.745Z,75.98
2019-05-17T13:50:46.715Z,76.81
2019-05-17T13:51:46.703Z,77.23
2019-05-17T13:52:46.691Z,76.84
2019-05-17T13:53:46.682Z,77.08
2019-05-17T13:54:46.699Z,73.97
2019-05-17T13:55:46.661Z,72.08
2019-05-17T13:56:46.646Z,70.73
2019-05-17T13:57:46.636Z,71.91
2019-05-17T13:58:46.629Z,73.01
2019-05-17T13:59:46.629Z,72.68
2019-05-17T14:00:46.606Z,73.42
2019-05-17T14:01:46.593Z,74.75
2019-05-17T14:02:46.585Z,78.44
2019-05-17T14:03:46.578Z,77.34
2019-05-17T14:04:46.575Z,78.11
2019-05-17T14:05:46.552Z,78.88
2019-05-17T14:06:46.540Z,79.15
2019-05-17T14:07:46.531Z,74.09
2019-05-17T14:08:46.519Z,74.96
2019-05-17T14:09:46.534Z,75.96
2019-05-17T14:10:46.496Z,76.94
2019-05-17T14:11:46.484Z,74.57
2019-05-17T14:12:46.473Z,75.42
2019-05-17T14:13:46.465Z,74.22
2019-05-17T14:14:46.472Z,74.38
2019-05-17T14:15:46.442Z,76.17
2019-05-17T14:16:46.430Z,77.19
2019-05-17T14:17:46.425Z,78.63
2019-05-17T14:18:46.408Z,75.49
2019-05-17T14:19:46.421Z,75.24
2019-05-17T14:20:46.437Z,75.38
2019-05-17T14:21:46.380Z,73.30
2019-05-17T14:22:46.406Z,73.24
2019-05-17T14:23:46.353Z,73.01
2019-05-17T14:24:46.346Z,72.74
2019-05-17T14:25:46.355Z,73.68
2019-05-17T14:26:46.320Z,74.96
2019-05-17T14:27:46.310Z,73.95
2019-05-17T14:28:46.297Z,71.44
2019-05-17T14:29:46.398Z,72.85
2019-05-17T14:30:46.290Z,72.05
2019-05-17T14:31:46.267Z,72.53
2019-05-17T14:32:46.306Z,71.40
2019-05-17T14:33:46.246Z,75.24
2019-05-17T14:34:46.234Z,76.17
2019-05-17T14:35:46.544Z,77.33
2019-05-17T14:36:46.221Z,77.51
2019-05-17T14:37:46.202Z,77.51
2019-05-17T14:38:58.517Z,77.00
2019-05-17T14:39:46.180Z,77.19
2019-05-17T14:41:05.671Z,77.25
2019-05-17T14:41:46.172Z,77.25
2019-05-17T14:42:46.144Z,79.03
2019-05-17T14:43:46.134Z,79.32
2019-05-17T14:44:46.126Z,79.03
2019-05-17T14:45:46.110Z,79.36
2019-05-17T14:46:46.117Z,79.46
2019-05-17T14:47:46.088Z,78.40
2019-05-17T14:48:46.082Z,78.88
2019-05-17T14:49:46.062Z,80.04
2019-05-17T14:50:46.057Z,79.84
2019-05-17T14:51:46.042Z,78.69
2019-05-17T14:52:46.040Z,78.15
2019-05-17T14:53:46.017Z,77.09
2019-05-17T14:54:46.004Z,75.46
2019-05-17T14:55:45.994Z,76.36
2019-05-17T14:56:45.976Z,76.40
2019-05-17T14:57:45.980Z,74.48
2019-05-17T14:58:45.953Z,75.34
2019-05-17T14:59:45.950Z,76.11
2019-05-17T15:00:45.926Z,73.84
2019-05-17T15:01:45.917Z,72.75
2019-05-17T15:02:45.917Z,70.74
2019-05-17T15:03:45.934Z,69.00
2019-05-17T15:04:45.883Z,69.39
2019-05-17T15:05:45.866Z,68.91
2019-05-17T15:06:45.856Z,66.56
2019-05-17T15:07:45.859Z,65.59
2019-05-17T15:08:46.447Z,63.08
2019-05-17T15:09:45.832Z,65.69
2019-05-17T15:10:45.823Z,67.20
2019-05-17T15:11:45.824Z,67.01
2019-05-17T15:12:45.803Z,66.08
2019-05-17T15:13:45.801Z,63.98
2019-05-17T15:14:45.813Z,63.46
2019-05-17T15:15:45.767Z,64.59
2019-05-17T15:16:45.800Z,65.53
2019-05-17T15:17:45.765Z,67.49
2019-05-17T15:18:45.745Z,71.60
2019-05-17T15:19:45.736Z,70.39
2019-05-17T15:20:45.728Z,65.82
2019-05-17T15:21:47.436Z,64.04
2019-05-17T15:22:47.422Z,64.89
2019-05-17T15:23:45.727Z,65.43
2019-05-17T15:24:45.692Z,64.01
2019-05-17T15:25:45.695Z,64.40
2019-05-17T15:27:03.507Z,63.04
2019-05-17T15:27:45.708Z,59.36
2019-05-17T15:28:45.664Z,62.40
2019-05-17T15:29:45.716Z,64.79
2019-05-17T15:30:45.650Z,65.43
2019-05-17T15:31:45.644Z,66.69
2019-05-17T15:32:45.661Z,65.91
2019-05-17T15:33:45.633Z,65.78
2019-05-17T15:34:45.628Z,63.76
2019-05-17T15:35:45.621Z,63.89
2019-05-17T15:36:45.641Z,60.72
2019-05-17T15:37:45.619Z,61.82
2019-05-17T15:38:45.598Z,61.92
2019-05-17T15:39:45.601Z,61.94
2019-05-17T15:40:45.586Z,59.38
2019-05-17T15:41:45.589Z,58.41
2019-05-17T15:42:45.594Z,58.14
2019-05-17T15:43:45.574Z,62.02
2019-05-17T15:44:45.566Z,65.78
2019-05-17T15:45:45.559Z,68.87
2019-05-17T15:46:45.561Z,70.82
2019-05-17T15:47:45.548Z,71.97
2019-05-17T15:48:45.559Z,74.63
2019-05-17T15:49:45.532Z,76.75
2019-05-17T15:50:45.694Z,75.11
2019-05-17T15:51:45.520Z,75.40
2019-05-17T15:52:45.518Z,75.59
2019-05-17T15:53:45.630Z,75.05
2019-05-17T15:54:48.488Z,75.44
2019-05-17T15:55:45.490Z,74.34
2019-05-17T15:56:45.529Z,75.59
2019-05-17T15:57:45.527Z,75.56
2019-05-17T15:58:45.643Z,76.07
2019-05-17T15:59:45.540Z,76.23
2019-05-17T16:00:45.447Z,75.32
2019-05-17T16:01:45.481Z,76.77
2019-05-17T16:02:45.424Z,77.50
2019-05-17T16:03:45.537Z,78.94
2019-05-17T16:04:45.419Z,78.17
2019-05-17T16:05:45.438Z,77.88
2019-05-17T16:06:45.384Z,77.98
2019-05-17T16:07:45.373Z,77.83
2019-05-17T16:08:45.369Z,74.38
2019-05-17T16:09:45.366Z,71.34
2019-05-17T16:10:45.340Z,71.59
2019-05-17T16:11:45.333Z,73.73
2019-05-17T16:13:01.083Z,74.25
2019-05-17T16:13:45.306Z,72.30
2019-05-17T16:14:45.333Z,74.05
2019-05-17T16:15:45.306Z,75.13
2019-05-17T16:16:45.293Z,77.92
2019-05-17T16:17:45.285Z,75.86
2019-05-17T16:18:45.262Z,71.95
2019-05-17T16:19:45.266Z,71.89
2019-05-17T16:20:45.232Z,69.42
2019-05-17T16:21:45.231Z,68.68
2019-05-17T16:22:45.214Z,66.91
2019-05-17T16:23:45.225Z,67.78
2019-05-17T16:24:45.220Z,66.20
2019-05-17T16:25:45.200Z,66.69
2019-05-17T16:26:45.176Z,67.40
2019-05-17T16:27:45.165Z,69.35
2019-05-17T16:28:45.159Z,70.89
2019-05-17T16:29:45.147Z,71.81
2019-05-17T16:30:45.167Z,71.46
2019-05-17T16:31:45.137Z,73.88
2019-05-17T16:32:45.138Z,76.73
2019-05-17T16:33:45.115Z,76.29
2019-05-17T16:34:45.106Z,77.53
2019-05-17T16:35:45.110Z,75.96
2019-05-17T16:36:45.086Z,76.15
2019-05-17T16:37:45.082Z,78.55
2019-05-17T16:38:45.062Z,77.75
2019-05-17T16:39:45.055Z,76.06
2019-05-17T16:40:45.067Z,76.29
2019-05-17T16:41:45.029Z,75.90
2019-05-17T16:42:45.021Z,75.77
2019-05-17T16:43:45.010Z,76.73
2019-05-17T16:44:45.006Z,76.73
2019-05-17T16:45:45.001Z,76.98
2019-05-17T16:46:44.975Z,76.79
2019-05-17T16:47:44.964Z,76.92
2019-05-17T16:48:44.969Z,77.78
2019-05-17T16:49:44.942Z,78.70
2019-05-17T16:50:44.947Z,79.47
2019-05-17T16:51:44.918Z,77.46
2019-05-17T16:52:44.904Z,77.56
2019-05-17T16:53:44.901Z,77.84
2019-05-17T16:54:44.878Z,78.90
2019-05-17T16:55:44.884Z,78.80
2019-05-17T16:56:44.857Z,78.25
2019-05-17T16:57:44.850Z,74.99
2019-05-17T16:58:44.829Z,70.92
2019-05-17T16:59:44.816Z,70.19
2019-05-17T17:00:44.829Z,71.08
2019-05-17T17:01:44.796Z,71.78
2019-05-17T17:02:44.786Z,73.86
2019-05-17T17:03:44.955Z,74.54
2019-05-17T17:04:44.758Z,75.23
2019-05-17T17:05:44.762Z,75.42
2019-05-17T17:06:44.739Z,74.25
2019-05-17T17:07:44.732Z,75.79
2019-05-17T17:08:44.719Z,74.34
2019-05-17T17:09:44.705Z,75.84
2019-05-17T17:10:44.709Z,77.58
2019-05-17T17:11:45.774Z,77.09
2019-05-17T17:12:44.671Z,77.73
2019-05-17T17:13:44.670Z,77.73
2019-05-17T17:14:44.648Z,78.08
2019-05-17T17:15:44.674Z,78.99
2019-05-17T17:16:44.645Z,79.86
2019-05-17T17:17:44.612Z,79.76
2019-05-17T17:18:44.611Z,80.05
2019-05-17T17:19:44.587Z,79.67
2019-05-17T17:20:44.573Z,79.72
2019-05-17T17:21:44.575Z,80.78
2019-05-17T17:22:44.554Z,80.01
2019-05-17T17:23:44.536Z,80.40
2019-05-17T17:24:44.522Z,81.35
2019-05-17T17:25:44.516Z,80.30
2019-05-17T17:26:44.511Z,81.35
2019-05-17T17:27:44.483Z,81.64
2019-05-17T17:28:44.471Z,81.78
2019-05-17T17:29:44.456Z,81.74
2019-05-17T17:30:44.447Z,82.12
2019-05-17T17:31:44.451Z,81.16
2019-05-17T17:32:44.422Z,81.45
2019-05-17T17:33:44.402Z,81.26
2019-05-17T17:34:44.391Z,82.60
2019-05-17T17:35:44.394Z,82.46
2019-05-17T17:36:44.360Z,82.37
2019-05-17T17:37:44.366Z,82.98
2019-05-17T17:38:44.335Z,82.70
2019-05-17T17:39:44.327Z,83.37
2019-05-17T17:40:44.311Z,83.08
2019-05-17T17:41:44.292Z,82.46
2019-05-17T17:42:44.293Z,82.65
2019-05-17T17:43:57.540Z,82.94
2019-05-17T17:44:44.250Z,83.61
2019-05-17T17:45:44.240Z,84.09
2019-05-17T17:46:44.224Z,83.33
2019-05-17T17:47:44.232Z,83.33
2019-05-17T17:48:45.928Z,83.52
2019-05-17T17:49:44.185Z,83.61
2019-05-17T17:50:44.209Z,83.81
2019-05-17T17:51:44.180Z,83.23
2019-05-17T17:52:44.141Z,83.81
2019-05-17T17:53:44.139Z,83.42
2019-05-17T17:54:44.109Z,84.28
2019-05-17T17:55:44.094Z,83.81
2019-05-17T17:56:44.078Z,84.38
2019-05-17T17:57:44.064Z,84.91
2019-05-17T17:58:44.075Z,85.34
2019-05-17T17:59:44.043Z,84.44
2019-05-17T18:00:44.023Z,84.63
2019-05-17T18:01:44.005Z,85.82
2019-05-17T18:02:43.989Z,84.63
2019-05-17T18:03:43.991Z,85.97
2019-05-17T18:04:43.965Z,84.91
2019-05-17T18:05:43.948Z,85.68
2019-05-17T18:06:43.926Z,85.21
2019-05-17T18:07:43.922Z,86.83
2019-05-17T18:08:43.945Z,85.68
2019-05-17T18:09:43.891Z,85.88
2019-05-17T18:10:46.548Z,87.60
2019-05-17T18:11:43.858Z,85.30
2019-05-17T18:12:43.865Z,85.11
2019-05-17T18:13:43.857Z,86.83
2019-05-17T18:14:43.807Z,86.54
2019-05-17T18:15:43.792Z,87.21
2019-05-17T18:16:43.794Z,87.55
2019-05-17T18:17:43.760Z,86.60
2019-05-17T18:18:43.760Z,86.69
2019-05-17T18:19:43.730Z,86.21
2019-05-17T18:20:43.720Z,86.69
2019-05-17T18:21:43.699Z,87.84
2019-05-17T18:22:43.771Z,87.37
2019-05-17T18:23:43.686Z,86.50
2019-05-17T18:24:43.676Z,87.08
2019-05-17T18:25:43.654Z,87.84
2019-05-17T18:26:43.641Z,88.03
2019-05-17T18:27:43.603Z,87.17
2019-05-17T18:28:43.615Z,88.32
2019-05-17T18:29:43.599Z,87.94
2019-05-17T18:30:43.560Z,87.94
2019-05-17T18:31:43.543Z,87.74
2019-05-17T18:32:43.530Z,87.65
2019-05-17T18:33:43.532Z,88.61
2019-05-17T18:34:43.510Z,87.46
2019-05-17T18:35:43.509Z,88.51
2019-05-17T18:36:43.485Z,87.55
2019-05-17T18:37:43.464Z,88.51
2019-05-17T18:38:43.471Z,88.61
2019-05-17T18:39:43.420Z,88.90
2019-05-17T18:40:43.402Z,88.51
2019-05-17T18:41:43.394Z,88.61
2019-05-17T18:42:43.381Z,89.37
2019-05-17T18:43:43.385Z,88.61
2019-05-17T18:44:43.365Z,88.99
2019-05-17T18:45:43.357Z,89.52
2019-05-17T18:46:43.343Z,88.76
2019-05-17T18:47:43.324Z,88.95
2019-05-17T18:48:43.339Z,89.28
2019-05-17T18:49:43.277Z,89.72
2019-05-17T18:50:43.266Z,90.00
2019-05-17T18:51:43.238Z,89.72
2019-05-17T18:52:43.256Z,89.90
2019-05-17T18:53:43.214Z,90.96
2019-05-17T18:54:43.181Z,90.86
2019-05-17T18:55:43.169Z,90.58
2019-05-17T18:56:43.155Z,90.86
2019-05-17T18:57:43.141Z,91.92
2019-05-17T18:58:43.118Z,91.63
2019-05-17T18:59:43.122Z,91.34
2019-05-17T19:00:43.084Z,92.21
2019-05-17T19:01:43.072Z,92.21
2019-05-17T19:02:43.050Z,92.40
2019-05-17T19:03:43.040Z,92.58
2019-05-17T19:04:43.056Z,92.97
2019-05-17T19:05:45.278Z,93.07
2019-05-17T19:06:42.992Z,93.21
2019-05-17T19:07:42.971Z,93.02
2019-05-17T19:08:42.956Z,93.30
2019-05-17T19:09:42.954Z,93.02
2019-05-17T19:10:42.928Z,94.07
2019-05-17T19:11:42.929Z,94.45
2019-05-17T19:12:42.886Z,94.84
2019-05-17T19:13:42.870Z,93.30
2019-05-17T19:14:43.469Z,93.40
2019-05-17T19:15:42.851Z,93.69
2019-05-17T19:16:42.823Z,93.50
2019-05-17T19:17:42.803Z,95.31
2019-05-17T19:18:42.790Z,95.41
2019-05-17T19:19:42.779Z,95.41
2019-05-17T19:20:42.779Z,94.79
2019-05-17T19:21:42.751Z,94.93
2019-05-17T19:22:42.724Z,94.93
2019-05-17T19:23:42.707Z,95.89
2019-05-17T19:24:42.695Z,95.65
2019-05-17T19:25:42.701Z,95.36
2019-05-17T19:26:42.656Z,95.84
2019-05-17T19:27:42.641Z,96.70
2019-05-17T19:28:42.624Z,97.08
2019-05-17T19:29:43.357Z,97.08
2019-05-17T19:30:42.626Z,96.99
2019-05-17T19:31:42.575Z,97.95
2019-05-17T19:32:42.558Z,99.38
2019-05-17T19:33:42.543Z,98.90
2019-05-17T19:34:42.535Z,98.75
2019-05-17T19:35:42.508Z,99.81
2019-05-17T19:36:42.508Z,99.99
2019-05-17T19:37:42.475Z,99.99
2019-05-17T19:38:42.463Z,99.99
2019-05-17T19:39:42.448Z,99.99
2019-05-17T19:40:42.439Z,99.43
2019-05-17T19:41:42.433Z,99.99
2019-05-17T19:42:42.407Z,99.99
2019-05-17T19:43:42.398Z,99.99
2019-05-17T19:44:56.582Z,99.99
2019-05-17T19:45:42.348Z,99.99
2019-05-17T19:46:42.344Z,99.99
2019-05-17T19:47:42.308Z,99.99
2019-05-17T19:48:42.302Z,99.99
2019-05-17T19:49:42.284Z,99.99
2019-05-17T19:50:42.265Z,99.99
2019-05-17T19:51:42.261Z,99.99
2019-05-17T19:52:42.237Z,99.99
2019-05-17T19:53:42.213Z,99.99
2019-05-17T19:54:42.198Z,99.99
2019-05-17T19:55:42.186Z,99.99
2019-05-17T19:56:42.193Z,99.99
2019-05-17T19:57:42.144Z,99.99
2019-05-17T19:58:42.145Z,99.99
2019-05-17T19:59:42.108Z,99.99
2019-05-17T20:00:42.085Z,99.99
2019-05-17T20:01:42.098Z,99.99
2019-05-17T20:02:42.050Z,99.99
2019-05-17T20:03:42.054Z,99.99
2019-05-17T20:04:42.028Z,99.99
2019-05-17T20:05:42.000Z,99.99
2019-05-17T20:06:41.985Z,99.99
2019-05-17T20:07:41.993Z,99.99
2019-05-17T20:08:41.949Z,99.99
2019-05-17T20:09:41.948Z,99.99
2019-05-17T20:10:41.962Z,99.99
2019-05-17T20:11:41.906Z,99.99
2019-05-17T20:12:41.898Z,99.99
2019-05-17T20:13:41.875Z,99.99
2019-05-17T20:14:41.847Z,99.99
2019-05-17T20:15:41.845Z,99.99
2019-05-17T20:16:41.817Z,99.99
2019-05-17T20:17:41.818Z,99.99
2019-05-17T20:18:41.791Z,99.99
2019-05-17T20:19:41.769Z,99.99
2019-05-17T20:20:41.751Z,99.99
2019-05-17T20:21:41.728Z,99.99
2019-05-17T20:22:41.719Z,99.99
2019-05-17T20:23:43.626Z,99.99
2019-05-17T20:24:41.685Z,99.99
2019-05-17T20:25:41.656Z,99.99
2019-05-17T20:26:41.656Z,99.99
2019-05-17T20:27:41.641Z,99.99
2019-05-17T20:28:41.638Z,99.99
2019-05-17T20:29:41.610Z,99.99
2019-05-17T20:30:41.590Z,99.99
2019-05-17T20:31:41.571Z,99.99
2019-05-17T20:32:41.557Z,99.99
2019-05-17T20:33:41.556Z,99.99